sensor_id;sensor_type;location;lat;lon;timestamp;temperature;humidity
14079;DHT22;7115;50.150;8.568;2022-12-18T00:01:47;-5.60;99.90
14079;DHT22;7115;50.150;8.568;2022-12-18T00:04:20;-5.60;99.90
14079;DHT22;7115;50.150;8.568;2022-12-18T00:06:48;-5.60;99.90
14079;DHT22;7115;50.150;8.568;2022-12-18T00:09:15;-5.70;99.90
14079;DHT22;7115;50.150;8.568;2022-12-18T00:11:43;-5.70;99.90
14079;DHT22;7115;50.150;8.568;2022-12-18T00:14:11;-5.70;99.90
14079;DHT22;7115;50.150;8.568;2022-12-18T00:16:39;-5.70;99.90
14079;DHT22;7115;50.150;8.568;2022-12-18T00:19:09;-5.70;99.90
14079;DHT22;7115;50.150;8.568;2022-12-18T00:21:42;-5.60;99.90
14079;DHT22;7115;50.150;8.568;2022-12-18T00:24:09;-5.60;99.90
14079;DHT22;7115;50.150;8.568;2022-12-18T00:26:38;-5.60;99.90
14079;DHT22;7115;50.150;8.568;2022-12-18T00:29:08;-5.60;99.90
14079;DHT22;7115;50.150;8.568;2022-12-18T00:31:37;-5.60;99.90
14079;DHT22;7115;50.150;8.568;2022-12-18T00:34:05;-5.60;99.90
14079;DHT22;7115;50.150;8.568;2022-12-18T00:36:34;-5.60;99.90
14079;DHT22;7115;50.150;8.568;2022-12-18T00:39:04;-5.70;99.90
14079;DHT22;7115;50.150;8.568;2022-12-18T00:41:32;-5.70;99.90
14079;DHT22;7115;50.150;8.568;2022-12-18T00:44:18;-5.80;99.90
14079;DHT22;7115;50.150;8.568;2022-12-18T00:46:46;-5.90;99.90
14079;DHT22;7115;50.150;8.568;2022-12-18T00:49:14;-6.00;99.90
14079;DHT22;7115;50.150;8.568;2022-12-18T00:51:43;-6.10;99.90
14079;DHT22;7115;50.150;8.568;2022-12-18T00:54:11;-6.20;99.90
14079;DHT22;7115;50.150;8.568;2022-12-18T00:56:38;-6.20;99.90
14079;DHT22;7115;50.150;8.568;2022-12-18T00:59:14;-6.30;99.90
14079;DHT22;7115;50.150;8.568;2022-12-18T01:01:41;-6.30;99.90
14079;DHT22;7115;50.150;8.568;2022-12-18T01:04:09;-6.40;99.90
14079;DHT22;7115;50.150;8.568;2022-12-18T01:06:36;-6.40;99.90
14079;DHT22;7115;50.150;8.568;2022-12-18T01:09:04;-6.50;99.90
14079;DHT22;7115;50.150;8.568;2022-12-18T01:11:31;-6.50;99.90
14079;DHT22;7115;50.150;8.568;2022-12-18T01:14:01;-6.50;99.90
14079;DHT22;7115;50.150;8.568;2022-12-18T01:16:28;-6.50;99.90
14079;DHT22;7115;50.150;8.568;2022-12-18T01:18:55;-6.50;99.90
14079;DHT22;7115;50.150;8.568;2022-12-18T01:21:23;-6.50;99.90
14079;DHT22;7115;50.150;8.568;2022-12-18T01:23:54;-6.40;99.90
14079;DHT22;7115;50.150;8.568;2022-12-18T01:26:24;-6.40;99.90
14079;DHT22;7115;50.150;8.568;2022-12-18T01:28:53;-6.40;99.90
14079;DHT22;7115;50.150;8.568;2022-12-18T01:31:23;-6.40;99.90
14079;DHT22;7115;50.150;8.568;2022-12-18T01:33:52;-6.40;99.90
14079;DHT22;7115;50.150;8.568;2022-12-18T01:36:21;-6.50;99.90
14079;DHT22;7115;50.150;8.568;2022-12-18T01:38:49;-6.60;99.90
14079;DHT22;7115;50.150;8.568;2022-12-18T01:41:18;-6.60;99.90
14079;DHT22;7115;50.150;8.568;2022-12-18T01:43:50;-6.60;99.90
14079;DHT22;7115;50.150;8.568;2022-12-18T01:46:19;-6.60;99.90
14079;DHT22;7115;50.150;8.568;2022-12-18T01:48:48;-6.70;99.90
14079;DHT22;7115;50.150;8.568;2022-12-18T01:51:16;-6.60;99.90
14079;DHT22;7115;50.150;8.568;2022-12-18T01:53:44;-6.60;99.90
14079;DHT22;7115;50.150;8.568;2022-12-18T01:56:14;-6.60;99.90
14079;DHT22;7115;50.150;8.568;2022-12-18T01:58:50;-6.50;99.90
14079;DHT22;7115;50.150;8.568;2022-12-18T02:01:18;-6.50;99.90
14079;DHT22;7115;50.150;8.568;2022-12-18T02:03:46;-6.50;99.90
14079;DHT22;7115;50.150;8.568;2022-12-18T02:06:15;-6.50;99.90
14079;DHT22;7115;50.150;8.568;2022-12-18T02:09:01;-6.50;99.90
14079;DHT22;7115;50.150;8.568;2022-12-18T02:11:37;-6.50;99.90
14079;DHT22;7115;50.150;8.568;2022-12-18T02:14:17;-6.50;99.90
14079;DHT22;7115;50.150;8.568;2022-12-18T02:16:51;-6.50;99.90
14079;DHT22;7115;50.150;8.568;2022-12-18T02:19:39;-6.60;99.90
14079;DHT22;7115;50.150;8.568;2022-12-18T02:22:15;-6.70;99.90
14079;DHT22;7115;50.150;8.568;2022-12-18T02:24:49;-6.70;99.90
14079;DHT22;7115;50.150;8.568;2022-12-18T02:27:22;-6.70;99.90
14079;DHT22;7115;50.150;8.568;2022-12-18T02:29:51;-6.70;99.90
14079;DHT22;7115;50.150;8.568;2022-12-18T02:32:28;-6.80;99.90
14079;DHT22;7115;50.150;8.568;2022-12-18T02:34:58;-6.80;99.90
14079;DHT22;7115;50.150;8.568;2022-12-18T02:37:28;-6.80;99.90
14079;DHT22;7115;50.150;8.568;2022-12-18T02:39:57;-6.80;99.90
14079;DHT22;7115;50.150;8.568;2022-12-18T02:42:26;-6.80;99.90
14079;DHT22;7115;50.150;8.568;2022-12-18T02:44:54;-6.70;99.90
14079;DHT22;7115;50.150;8.568;2022-12-18T02:47:23;-6.70;99.90
14079;DHT22;7115;50.150;8.568;2022-12-18T02:49:57;-6.70;99.90
14079;DHT22;7115;50.150;8.568;2022-12-18T02:52:33;-6.60;99.90
14079;DHT22;7115;50.150;8.568;2022-12-18T02:55:15;-6.60;99.90
14079;DHT22;7115;50.150;8.568;2022-12-18T02:57:49;-6.60;99.90
14079;DHT22;7115;50.150;8.568;2022-12-18T03:00:19;-6.50;99.90
14079;DHT22;7115;50.150;8.568;2022-12-18T03:02:48;-6.50;99.90
14079;DHT22;7115;50.150;8.568;2022-12-18T03:05:21;-6.50;99.90
14079;DHT22;7115;50.150;8.568;2022-12-18T03:07:51;-6.50;99.90
14079;DHT22;7115;50.150;8.568;2022-12-18T03:10:25;-6.50;99.90
14079;DHT22;7115;50.150;8.568;2022-12-18T03:12:59;-6.40;99.90
14079;DHT22;7115;50.150;8.568;2022-12-18T03:15:29;-6.40;99.90
14079;DHT22;7115;50.150;8.568;2022-12-18T03:18:03;-6.40;99.90
14079;DHT22;7115;50.150;8.568;2022-12-18T03:20:33;-6.40;99.90
14079;DHT22;7115;50.150;8.568;2022-12-18T03:23:06;-6.40;99.90
14079;DHT22;7115;50.150;8.568;2022-12-18T03:25:37;-6.40;99.90
14079;DHT22;7115;50.150;8.568;2022-12-18T03:28:10;-6.40;99.90
14079;DHT22;7115;50.150;8.568;2022-12-18T03:30:40;-6.40;99.90
14079;DHT22;7115;50.150;8.568;2022-12-18T03:33:10;-6.40;99.90
14079;DHT22;7115;50.150;8.568;2022-12-18T03:35:40;-6.40;99.90
14079;DHT22;7115;50.150;8.568;2022-12-18T03:38:09;-6.40;99.90
14079;DHT22;7115;50.150;8.568;2022-12-18T03:40:44;-6.40;99.90
14079;DHT22;7115;50.150;8.568;2022-12-18T03:43:19;-6.40;99.90
14079;DHT22;7115;50.150;8.568;2022-12-18T03:45:51;-6.40;99.90
14079;DHT22;7115;50.150;8.568;2022-12-18T03:48:26;-6.40;99.90
14079;DHT22;7115;50.150;8.568;2022-12-18T03:50:57;-6.40;99.90
14079;DHT22;7115;50.150;8.568;2022-12-18T03:53:34;-6.40;99.90
14079;DHT22;7115;50.150;8.568;2022-12-18T03:56:04;-6.60;99.90
14079;DHT22;7115;50.150;8.568;2022-12-18T03:58:35;-6.50;99.90
14079;DHT22;7115;50.150;8.568;2022-12-18T04:01:08;-6.50;99.90
14079;DHT22;7115;50.150;8.568;2022-12-18T04:03:36;-6.60;99.90
14079;DHT22;7115;50.150;8.568;2022-12-18T04:06:05;-6.50;99.90
14079;DHT22;7115;50.150;8.568;2022-12-18T04:08:33;-6.50;99.90
14079;DHT22;7115;50.150;8.568;2022-12-18T04:11:02;-6.60;99.90
14079;DHT22;7115;50.150;8.568;2022-12-18T04:13:35;-6.50;99.90
14079;DHT22;7115;50.150;8.568;2022-12-18T04:16:04;-6.50;99.90
14079;DHT22;7115;50.150;8.568;2022-12-18T04:18:31;-6.50;99.90
14079;DHT22;7115;50.150;8.568;2022-12-18T04:20:58;-6.60;99.90
14079;DHT22;7115;50.150;8.568;2022-12-18T04:23:25;-6.60;99.90
14079;DHT22;7115;50.150;8.568;2022-12-18T04:25:52;-6.60;99.90
14079;DHT22;7115;50.150;8.568;2022-12-18T04:28:20;-6.60;99.90
14079;DHT22;7115;50.150;8.568;2022-12-18T04:30:49;-6.60;99.90
14079;DHT22;7115;50.150;8.568;2022-12-18T04:33:16;-6.60;99.90
14079;DHT22;7115;50.150;8.568;2022-12-18T04:35:43;-6.60;99.90
14079;DHT22;7115;50.150;8.568;2022-12-18T04:38:10;-6.50;99.90
14079;DHT22;7115;50.150;8.568;2022-12-18T04:40:37;-6.50;99.90
14079;DHT22;7115;50.150;8.568;2022-12-18T04:43:04;-6.50;99.90
14079;DHT22;7115;50.150;8.568;2022-12-18T04:45:32;-6.50;99.90
14079;DHT22;7115;50.150;8.568;2022-12-18T04:48:02;-6.50;99.90
14079;DHT22;7115;50.150;8.568;2022-12-18T04:50:30;-6.40;99.90
14079;DHT22;7115;50.150;8.568;2022-12-18T04:52:57;-6.50;99.90
14079;DHT22;7115;50.150;8.568;2022-12-18T04:55:24;-6.50;99.90
14079;DHT22;7115;50.150;8.568;2022-12-18T04:57:51;-6.50;99.90
14079;DHT22;7115;50.150;8.568;2022-12-18T05:00:18;-6.40;99.90
14079;DHT22;7115;50.150;8.568;2022-12-18T05:02:45;-6.40;99.90
14079;DHT22;7115;50.150;8.568;2022-12-18T05:05:13;-6.40;99.90
14079;DHT22;7115;50.150;8.568;2022-12-18T05:07:40;-6.40;99.90
14079;DHT22;7115;50.150;8.568;2022-12-18T05:10:07;-6.40;99.90
14079;DHT22;7115;50.150;8.568;2022-12-18T05:12:36;-6.50;99.90
14079;DHT22;7115;50.150;8.568;2022-12-18T05:15:22;-6.50;99.90
14079;DHT22;7115;50.150;8.568;2022-12-18T05:17:49;-6.50;99.90
14079;DHT22;7115;50.150;8.568;2022-12-18T05:20:18;-6.50;99.90
14079;DHT22;7115;50.150;8.568;2022-12-18T05:22:45;-6.70;99.90
14079;DHT22;7115;50.150;8.568;2022-12-18T05:25:11;-6.50;99.90
14079;DHT22;7115;50.150;8.568;2022-12-18T05:27:38;-6.60;99.90
14079;DHT22;7115;50.150;8.568;2022-12-18T05:30:06;-6.60;99.90
14079;DHT22;7115;50.150;8.568;2022-12-18T05:32:33;-6.70;99.90
14079;DHT22;7115;50.150;8.568;2022-12-18T05:35:00;-6.80;99.90
14079;DHT22;7115;50.150;8.568;2022-12-18T05:37:29;-6.90;99.90
14079;DHT22;7115;50.150;8.568;2022-12-18T05:39:56;-6.90;99.90
14079;DHT22;7115;50.150;8.568;2022-12-18T05:42:23;-6.90;99.90
14079;DHT22;7115;50.150;8.568;2022-12-18T05:44:49;-7.00;99.90
14079;DHT22;7115;50.150;8.568;2022-12-18T05:47:16;-7.00;99.90
14079;DHT22;7115;50.150;8.568;2022-12-18T05:49:43;-7.00;99.90
14079;DHT22;7115;50.150;8.568;2022-12-18T05:52:10;-7.00;99.90
14079;DHT22;7115;50.150;8.568;2022-12-18T05:54:38;-7.00;99.90
14079;DHT22;7115;50.150;8.568;2022-12-18T05:57:06;-7.10;99.90
14079;DHT22;7115;50.150;8.568;2022-12-18T05:59:33;-7.10;99.90
14079;DHT22;7115;50.150;8.568;2022-12-18T06:02:00;-7.00;99.90
14079;DHT22;7115;50.150;8.568;2022-12-18T06:04:27;-7.00;99.90
14079;DHT22;7115;50.150;8.568;2022-12-18T06:06:55;-6.90;99.90
14079;DHT22;7115;50.150;8.568;2022-12-18T06:09:22;-7.00;99.90
14079;DHT22;7115;50.150;8.568;2022-12-18T06:11:51;-6.90;99.90
14079;DHT22;7115;50.150;8.568;2022-12-18T06:14:18;-6.90;99.90
14079;DHT22;7115;50.150;8.568;2022-12-18T06:16:45;-6.90;99.90
14079;DHT22;7115;50.150;8.568;2022-12-18T06:19:15;-6.90;99.90
14079;DHT22;7115;50.150;8.568;2022-12-18T06:21:42;-6.90;99.90
14079;DHT22;7115;50.150;8.568;2022-12-18T06:24:09;-6.90;99.90
14079;DHT22;7115;50.150;8.568;2022-12-18T06:26:37;-7.00;99.90
14079;DHT22;7115;50.150;8.568;2022-12-18T06:29:05;-7.00;99.90
14079;DHT22;7115;50.150;8.568;2022-12-18T06:31:32;-7.00;99.90
14079;DHT22;7115;50.150;8.568;2022-12-18T06:34:01;-7.00;99.90
14079;DHT22;7115;50.150;8.568;2022-12-18T06:36:29;-7.00;99.90
14079;DHT22;7115;50.150;8.568;2022-12-18T06:38:56;-7.00;99.90
14079;DHT22;7115;50.150;8.568;2022-12-18T06:41:24;-7.00;99.90
14079;DHT22;7115;50.150;8.568;2022-12-18T06:43:51;-7.00;99.90
14079;DHT22;7115;50.150;8.568;2022-12-18T06:46:26;-7.10;99.90
14079;DHT22;7115;50.150;8.568;2022-12-18T06:48:53;-7.10;99.90
14079;DHT22;7115;50.150;8.568;2022-12-18T06:51:21;-7.20;99.90
14079;DHT22;7115;50.150;8.568;2022-12-18T06:53:48;-7.20;99.90
14079;DHT22;7115;50.150;8.568;2022-12-18T06:56:16;-7.20;99.90
14079;DHT22;7115;50.150;8.568;2022-12-18T06:58:43;-7.30;99.90
14079;DHT22;7115;50.150;8.568;2022-12-18T07:01:11;-7.40;99.90
14079;DHT22;7115;50.150;8.568;2022-12-18T07:03:40;-7.40;99.90
14079;DHT22;7115;50.150;8.568;2022-12-18T07:06:13;-7.40;99.90
14079;DHT22;7115;50.150;8.568;2022-12-18T07:08:40;-7.40;99.90
14079;DHT22;7115;50.150;8.568;2022-12-18T07:11:07;-7.40;99.90
14079;DHT22;7115;50.150;8.568;2022-12-18T07:13:34;-7.40;99.90
14079;DHT22;7115;50.150;8.568;2022-12-18T07:16:06;-7.30;99.90
14079;DHT22;7115;50.150;8.568;2022-12-18T07:18:44;-7.30;99.90
14079;DHT22;7115;50.150;8.568;2022-12-18T07:21:15;-7.20;99.90
14079;DHT22;7115;50.150;8.568;2022-12-18T07:23:42;-7.30;99.90
14079;DHT22;7115;50.150;8.568;2022-12-18T07:26:11;-7.00;99.90
14079;DHT22;7115;50.150;8.568;2022-12-18T07:28:40;-7.00;99.90
14079;DHT22;7115;50.150;8.568;2022-12-18T07:31:08;-6.90;99.90
14079;DHT22;7115;50.150;8.568;2022-12-18T07:33:37;-6.80;99.90
14079;DHT22;7115;50.150;8.568;2022-12-18T07:36:08;-6.80;99.90
14079;DHT22;7115;50.150;8.568;2022-12-18T07:38:36;-6.70;99.90
14079;DHT22;7115;50.150;8.568;2022-12-18T07:41:04;-6.80;99.90
14079;DHT22;7115;50.150;8.568;2022-12-18T07:43:32;-6.80;99.90
14079;DHT22;7115;50.150;8.568;2022-12-18T07:45:59;-6.80;99.90
14079;DHT22;7115;50.150;8.568;2022-12-18T07:48:27;-6.70;99.90
14079;DHT22;7115;50.150;8.568;2022-12-18T07:50:54;-6.60;99.90
14079;DHT22;7115;50.150;8.568;2022-12-18T07:53:25;-6.50;99.90
14079;DHT22;7115;50.150;8.568;2022-12-18T07:55:55;-6.20;99.90
14079;DHT22;7115;50.150;8.568;2022-12-18T07:58:42;-5.90;99.90
14079;DHT22;7115;50.150;8.568;2022-12-18T08:01:11;-5.40;99.90
14079;DHT22;7115;50.150;8.568;2022-12-18T08:03:39;-5.10;99.90
14079;DHT22;7115;50.150;8.568;2022-12-18T08:06:09;-4.60;99.90
14079;DHT22;7115;50.150;8.568;2022-12-18T08:08:37;-4.20;99.90
14079;DHT22;7115;50.150;8.568;2022-12-18T08:11:04;-3.90;99.90
14079;DHT22;7115;50.150;8.568;2022-12-18T08:13:31;-3.70;99.90
14079;DHT22;7115;50.150;8.568;2022-12-18T08:16:00;-3.50;99.90
14079;DHT22;7115;50.150;8.568;2022-12-18T08:18:27;-3.20;99.90
14079;DHT22;7115;50.150;8.568;2022-12-18T08:20:55;-2.70;99.90
14079;DHT22;7115;50.150;8.568;2022-12-18T08:23:22;-2.30;99.90
14079;DHT22;7115;50.150;8.568;2022-12-18T08:25:58;-1.90;99.90
14079;DHT22;7115;50.150;8.568;2022-12-18T08:28:25;-1.50;99.90
14079;DHT22;7115;50.150;8.568;2022-12-18T08:30:52;-1.10;99.90
14079;DHT22;7115;50.150;8.568;2022-12-18T08:33:19;-0.80;99.90
14079;DHT22;7115;50.150;8.568;2022-12-18T08:35:46;-0.60;99.90
14079;DHT22;7115;50.150;8.568;2022-12-18T08:38:13;-0.30;99.90
14079;DHT22;7115;50.150;8.568;2022-12-18T08:40:39;0.00;99.90
14079;DHT22;7115;50.150;8.568;2022-12-18T08:43:09;0.20;99.90
14079;DHT22;7115;50.150;8.568;2022-12-18T08:45:55;0.50;99.90
14079;DHT22;7115;50.150;8.568;2022-12-18T08:48:22;0.60;99.90
14079;DHT22;7115;50.150;8.568;2022-12-18T08:50:54;0.80;99.90
14079;DHT22;7115;50.150;8.568;2022-12-18T08:53:21;0.90;99.90
14079;DHT22;7115;50.150;8.568;2022-12-18T08:55:48;1.00;99.90
14079;DHT22;7115;50.150;8.568;2022-12-18T08:58:17;1.20;99.90
14079;DHT22;7115;50.150;8.568;2022-12-18T09:00:44;1.30;99.90
14079;DHT22;7115;50.150;8.568;2022-12-18T09:03:12;1.60;99.90
14079;DHT22;7115;50.150;8.568;2022-12-18T09:05:39;1.90;99.90
14079;DHT22;7115;50.150;8.568;2022-12-18T09:08:06;2.10;99.90
14079;DHT22;7115;50.150;8.568;2022-12-18T09:10:33;2.30;99.90
14079;DHT22;7115;50.150;8.568;2022-12-18T09:13:07;2.60;99.90
14079;DHT22;7115;50.150;8.568;2022-12-18T09:15:40;3.00;99.90
14079;DHT22;7115;50.150;8.568;2022-12-18T09:18:07;3.50;99.90
14079;DHT22;7115;50.150;8.568;2022-12-18T09:20:35;3.80;99.90
14079;DHT22;7115;50.150;8.568;2022-12-18T09:23:02;4.20;99.90
14079;DHT22;7115;50.150;8.568;2022-12-18T09:25:29;4.60;99.90
14079;DHT22;7115;50.150;8.568;2022-12-18T09:27:59;4.90;99.90
14079;DHT22;7115;50.150;8.568;2022-12-18T09:30:27;5.30;99.90
14079;DHT22;7115;50.150;8.568;2022-12-18T09:32:55;5.60;99.90
14079;DHT22;7115;50.150;8.568;2022-12-18T09:35:22;6.00;99.90
14079;DHT22;7115;50.150;8.568;2022-12-18T09:37:49;6.30;99.90
14079;DHT22;7115;50.150;8.568;2022-12-18T09:40:18;6.80;99.70
14079;DHT22;7115;50.150;8.568;2022-12-18T09:42:50;7.10;99.20
14079;DHT22;7115;50.150;8.568;2022-12-18T09:45:18;7.40;98.80
14079;DHT22;7115;50.150;8.568;2022-12-18T09:47:47;7.60;98.40
14079;DHT22;7115;50.150;8.568;2022-12-18T09:50:23;7.60;98.00
14079;DHT22;7115;50.150;8.568;2022-12-18T09:52:54;7.80;97.60
14079;DHT22;7115;50.150;8.568;2022-12-18T09:55:25;8.00;97.40
14079;DHT22;7115;50.150;8.568;2022-12-18T09:58:06;8.00;97.00
14079;DHT22;7115;50.150;8.568;2022-12-18T10:00:34;8.00;96.80
14079;DHT22;7115;50.150;8.568;2022-12-18T10:03:11;7.90;96.60
14079;DHT22;7115;50.150;8.568;2022-12-18T10:05:46;7.80;96.30
14079;DHT22;7115;50.150;8.568;2022-12-18T10:08:18;7.60;96.20
14079;DHT22;7115;50.150;8.568;2022-12-18T10:10:50;7.40;96.00
14079;DHT22;7115;50.150;8.568;2022-12-18T10:13:24;7.10;96.00
14079;DHT22;7115;50.150;8.568;2022-12-18T10:16:07;7.00;96.10
14079;DHT22;7115;50.150;8.568;2022-12-18T10:18:50;7.00;96.00
14079;DHT22;7115;50.150;8.568;2022-12-18T10:21:28;7.30;95.90
14079;DHT22;7115;50.150;8.568;2022-12-18T10:24:02;7.30;95.70
14079;DHT22;7115;50.150;8.568;2022-12-18T10:26:33;7.40;95.50
14079;DHT22;7115;50.150;8.568;2022-12-18T10:29:01;7.30;95.10
14079;DHT22;7115;50.150;8.568;2022-12-18T10:31:31;6.80;94.70
14079;DHT22;7115;50.150;8.568;2022-12-18T10:33:58;6.20;94.60
14079;DHT22;7115;50.150;8.568;2022-12-18T10:36:27;5.60;94.70
14079;DHT22;7115;50.150;8.568;2022-12-18T10:38:53;5.20;94.80
14079;DHT22;7115;50.150;8.568;2022-12-18T10:41:26;4.90;94.90
14079;DHT22;7115;50.150;8.568;2022-12-18T10:44:15;4.40;94.80
14079;DHT22;7115;50.150;8.568;2022-12-18T10:46:44;3.90;94.80
14079;DHT22;7115;50.150;8.568;2022-12-18T10:49:24;3.30;95.00
14079;DHT22;7115;50.150;8.568;2022-12-18T10:52:07;2.80;95.20
14079;DHT22;7115;50.150;8.568;2022-12-18T10:54:38;2.10;95.30
14079;DHT22;7115;50.150;8.568;2022-12-18T10:57:15;1.70;95.70
14079;DHT22;7115;50.150;8.568;2022-12-18T10:59:51;1.50;96.00
14079;DHT22;7115;50.150;8.568;2022-12-18T11:02:28;1.20;96.10
14079;DHT22;7115;50.150;8.568;2022-12-18T11:05:00;1.10;96.30
14079;DHT22;7115;50.150;8.568;2022-12-18T11:07:47;1.10;96.40
14079;DHT22;7115;50.150;8.568;2022-12-18T11:10:17;0.90;96.30
14079;DHT22;7115;50.150;8.568;2022-12-18T11:12:45;0.50;96.30
14079;DHT22;7115;50.150;8.568;2022-12-18T11:15:15;0.10;96.60
14079;DHT22;7115;50.150;8.568;2022-12-18T11:17:43;-0.20;96.70
14079;DHT22;7115;50.150;8.568;2022-12-18T11:20:30;-0.40;96.90
14079;DHT22;7115;50.150;8.568;2022-12-18T11:23:01;-0.60;97.10
14079;DHT22;7115;50.150;8.568;2022-12-18T11:25:29;-0.80;97.20
14079;DHT22;7115;50.150;8.568;2022-12-18T11:28:00;-0.90;97.30
14079;DHT22;7115;50.150;8.568;2022-12-18T11:30:29;-1.00;97.40
14079;DHT22;7115;50.150;8.568;2022-12-18T11:33:01;-1.20;97.50
14079;DHT22;7115;50.150;8.568;2022-12-18T11:35:40;-1.30;97.60
14079;DHT22;7115;50.150;8.568;2022-12-18T11:38:18;-1.50;97.60
14079;DHT22;7115;50.150;8.568;2022-12-18T11:40:51;-1.70;97.80
14079;DHT22;7115;50.150;8.568;2022-12-18T11:43:23;-1.90;97.90
14079;DHT22;7115;50.150;8.568;2022-12-18T11:45:55;-2.00;98.00
14079;DHT22;7115;50.150;8.568;2022-12-18T11:48:27;-2.00;98.20
14079;DHT22;7115;50.150;8.568;2022-12-18T11:50:56;-2.00;98.30
14079;DHT22;7115;50.150;8.568;2022-12-18T11:53:26;-2.00;98.40
14079;DHT22;7115;50.150;8.568;2022-12-18T11:56:11;-2.00;98.40
14079;DHT22;7115;50.150;8.568;2022-12-18T11:58:51;-2.10;98.50
14079;DHT22;7115;50.150;8.568;2022-12-18T12:01:28;-2.10;98.60
14079;DHT22;7115;50.150;8.568;2022-12-18T12:04:48;-2.20;98.70
14079;DHT22;7115;50.150;8.568;2022-12-18T12:07:25;-2.20;98.90
14079;DHT22;7115;50.150;8.568;2022-12-18T12:10:04;-2.10;99.00
14079;DHT22;7115;50.150;8.568;2022-12-18T12:12:42;-2.10;99.10
14079;DHT22;7115;50.150;8.568;2022-12-18T12:15:24;-1.90;99.20
14079;DHT22;7115;50.150;8.568;2022-12-18T12:17:57;-1.80;99.20
14079;DHT22;7115;50.150;8.568;2022-12-18T12:20:35;-1.80;99.20
14079;DHT22;7115;50.150;8.568;2022-12-18T12:23:12;-1.80;99.20
14079;DHT22;7115;50.150;8.568;2022-12-18T12:25:48;-1.90;99.30
14079;DHT22;7115;50.150;8.568;2022-12-18T12:28:45;-1.90;99.50
14079;DHT22;7115;50.150;8.568;2022-12-18T12:31:24;-2.10;99.50
14079;DHT22;7115;50.150;8.568;2022-12-18T12:34:04;-2.20;99.60
14079;DHT22;7115;50.150;8.568;2022-12-18T12:36:40;-2.30;99.70
14079;DHT22;7115;50.150;8.568;2022-12-18T12:39:13;-2.40;99.80
14079;DHT22;7115;50.150;8.568;2022-12-18T12:41:45;-2.50;99.80
14079;DHT22;7115;50.150;8.568;2022-12-18T12:44:35;-2.60;99.90
14079;DHT22;7115;50.150;8.568;2022-12-18T12:47:09;-2.60;99.90
14079;DHT22;7115;50.150;8.568;2022-12-18T12:49:39;-2.70;99.90
14079;DHT22;7115;50.150;8.568;2022-12-18T12:52:12;-2.70;99.90
14079;DHT22;7115;50.150;8.568;2022-12-18T12:54:41;-2.70;99.90
14079;DHT22;7115;50.150;8.568;2022-12-18T12:57:13;-2.70;99.90
14079;DHT22;7115;50.150;8.568;2022-12-18T12:59:49;-2.60;99.90
14079;DHT22;7115;50.150;8.568;2022-12-18T13:02:21;-2.60;99.90
14079;DHT22;7115;50.150;8.568;2022-12-18T13:04:56;-2.50;99.90
14079;DHT22;7115;50.150;8.568;2022-12-18T13:07:28;-2.40;99.90
14079;DHT22;7115;50.150;8.568;2022-12-18T13:10:30;-2.40;99.90
14079;DHT22;7115;50.150;8.568;2022-12-18T13:13:02;-2.40;99.90
14079;DHT22;7115;50.150;8.568;2022-12-18T13:15:36;-2.40;99.90
14079;DHT22;7115;50.150;8.568;2022-12-18T13:18:12;-2.40;99.90
14079;DHT22;7115;50.150;8.568;2022-12-18T13:20:41;-2.40;99.90
14079;DHT22;7115;50.150;8.568;2022-12-18T13:23:30;-2.30;99.90
14079;DHT22;7115;50.150;8.568;2022-12-18T13:25:58;-2.30;99.90
14079;DHT22;7115;50.150;8.568;2022-12-18T13:34:37;-2.10;99.90
14079;DHT22;7115;50.150;8.568;2022-12-18T13:37:40;-2.20;99.90
14079;DHT22;7115;50.150;8.568;2022-12-18T13:43:30;-2.20;99.90
14079;DHT22;7115;50.150;8.568;2022-12-18T13:46:16;-2.20;99.90
14079;DHT22;7115;50.150;8.568;2022-12-18T13:48:54;-2.20;99.90
14079;DHT22;7115;50.150;8.568;2022-12-18T13:51:24;-2.10;99.90
14079;DHT22;7115;50.150;8.568;2022-12-18T13:53:54;-2.10;99.90
14079;DHT22;7115;50.150;8.568;2022-12-18T13:56:24;-2.10;99.90
14079;DHT22;7115;50.150;8.568;2022-12-18T13:59:13;-2.10;99.90
14079;DHT22;7115;50.150;8.568;2022-12-18T14:01:44;-2.10;99.90
14079;DHT22;7115;50.150;8.568;2022-12-18T14:04:17;-2.00;99.90
14079;DHT22;7115;50.150;8.568;2022-12-18T14:06:47;-2.00;99.90
14079;DHT22;7115;50.150;8.568;2022-12-18T14:09:16;-2.00;99.90
14079;DHT22;7115;50.150;8.568;2022-12-18T14:11:48;-1.90;99.90
14079;DHT22;7115;50.150;8.568;2022-12-18T14:14:18;-1.90;99.90
14079;DHT22;7115;50.150;8.568;2022-12-18T14:16:46;-1.80;99.90
14079;DHT22;7115;50.150;8.568;2022-12-18T14:19:16;-1.70;99.90
14079;DHT22;7115;50.150;8.568;2022-12-18T14:21:49;-1.70;99.90
14079;DHT22;7115;50.150;8.568;2022-12-18T14:24:19;-1.60;99.90
14079;DHT22;7115;50.150;8.568;2022-12-18T14:26:48;-1.50;99.90
14079;DHT22;7115;50.150;8.568;2022-12-18T14:29:22;-1.50;99.90
14079;DHT22;7115;50.150;8.568;2022-12-18T14:32:10;-1.40;99.90
14079;DHT22;7115;50.150;8.568;2022-12-18T14:34:44;-1.40;99.90
14079;DHT22;7115;50.150;8.568;2022-12-18T14:37:14;-1.40;99.90
14079;DHT22;7115;50.150;8.568;2022-12-18T14:39:52;-1.30;99.90
14079;DHT22;7115;50.150;8.568;2022-12-18T14:42:19;-1.30;99.90
14079;DHT22;7115;50.150;8.568;2022-12-18T14:44:46;-1.30;99.90
14079;DHT22;7115;50.150;8.568;2022-12-18T14:47:33;-1.30;99.90
14079;DHT22;7115;50.150;8.568;2022-12-18T14:50:00;-1.20;99.90
14079;DHT22;7115;50.150;8.568;2022-12-18T14:52:29;-1.30;99.90
14079;DHT22;7115;50.150;8.568;2022-12-18T14:54:58;-1.20;99.90
14079;DHT22;7115;50.150;8.568;2022-12-18T14:57:27;-1.20;99.90
14079;DHT22;7115;50.150;8.568;2022-12-18T15:00:04;-1.20;99.90
14079;DHT22;7115;50.150;8.568;2022-12-18T15:02:31;-1.20;99.90
14079;DHT22;7115;50.150;8.568;2022-12-18T15:05:05;-1.20;99.90
14079;DHT22;7115;50.150;8.568;2022-12-18T15:07:44;-1.20;99.90
14079;DHT22;7115;50.150;8.568;2022-12-18T15:10:14;-1.20;99.90
14079;DHT22;7115;50.150;8.568;2022-12-18T15:12:42;-1.30;99.90
14079;DHT22;7115;50.150;8.568;2022-12-18T15:15:44;-1.30;99.90
14079;DHT22;7115;50.150;8.568;2022-12-18T15:18:13;-1.20;99.90
14079;DHT22;7115;50.150;8.568;2022-12-18T15:20:43;-1.30;99.90
14079;DHT22;7115;50.150;8.568;2022-12-18T15:23:15;-1.30;99.90
14079;DHT22;7115;50.150;8.568;2022-12-18T15:25:43;-1.30;99.90
14079;DHT22;7115;50.150;8.568;2022-12-18T15:28:21;-1.30;99.90
14079;DHT22;7115;50.150;8.568;2022-12-18T15:31:17;-1.30;99.90
14079;DHT22;7115;50.150;8.568;2022-12-18T15:34:05;-1.30;99.90
14079;DHT22;7115;50.150;8.568;2022-12-18T15:36:32;-1.30;99.90
14079;DHT22;7115;50.150;8.568;2022-12-18T15:39:04;-1.30;99.90
14079;DHT22;7115;50.150;8.568;2022-12-18T15:41:34;-1.30;99.90
14079;DHT22;7115;50.150;8.568;2022-12-18T15:44:02;-1.30;99.90
14079;DHT22;7115;50.150;8.568;2022-12-18T15:46:30;-1.30;99.90
14079;DHT22;7115;50.150;8.568;2022-12-18T15:48:58;-1.30;99.90
14079;DHT22;7115;50.150;8.568;2022-12-18T15:51:31;-1.40;99.90
14079;DHT22;7115;50.150;8.568;2022-12-18T15:54:00;-1.40;99.90
14079;DHT22;7115;50.150;8.568;2022-12-18T15:56:29;-1.40;99.90
14079;DHT22;7115;50.150;8.568;2022-12-18T15:59:17;-1.40;99.90
14079;DHT22;7115;50.150;8.568;2022-12-18T16:01:45;-1.40;99.90
14079;DHT22;7115;50.150;8.568;2022-12-18T16:04:14;-1.40;99.90
14079;DHT22;7115;50.150;8.568;2022-12-18T16:06:42;-1.40;99.90
14079;DHT22;7115;50.150;8.568;2022-12-18T16:09:29;-1.40;99.90
14079;DHT22;7115;50.150;8.568;2022-12-18T16:12:00;-1.40;99.90
14079;DHT22;7115;50.150;8.568;2022-12-18T16:14:28;-1.40;99.90
14079;DHT22;7115;50.150;8.568;2022-12-18T16:16:57;-1.40;99.90
14079;DHT22;7115;50.150;8.568;2022-12-18T16:19:25;-1.40;99.90
14079;DHT22;7115;50.150;8.568;2022-12-18T16:21:54;-1.40;99.90
14079;DHT22;7115;50.150;8.568;2022-12-18T16:24:23;-1.40;99.90